Time;durP1;ratioP1;P1;durP2;ratioP2;P2;SDS_P1;SDS_P2;PMS_P1;PMS_P2;Temp;Humidity;BMP_temperature;BMP_pressure;BME280_temperature;BME280_humidity;BME280_pressure;Samples;Min_cycle;Max_cycle;Signal;HPM_P1;HPM_P2
2023/03/11 00:00:20;;;;;;;;;;;;;;;;;;4956739;29;19910;-78
2023/03/11 00:02:45;;;;;;;;;;;;;;;;;;4955760;29;19923;-79
2023/03/11 00:05:11;;;;;;;;;;;;;;;;;;4955425;29;19910;-78
2023/03/11 00:10:08;;;;;;;;;;;;;;;;;;5011941;28;19930;-80
2023/03/11 00:12:33;;;;;;;;;;;;;;;;;;4964929;28;19932;-79
2023/03/11 00:14:59;;;;;;;;;;;;;;;;;;4981383;28;20156;-80
2023/03/11 00:17:24;;;;;;;;;;;;;;;;;;4997799;28;20009;-80
2023/03/11 00:19:50;;;;;;;;;;;;;;;;;;4962639;28;20000;-80
2023/03/11 00:22:15;;;;;;;;;;;;;;;;;;4994590;28;20288;-80
2023/03/11 00:24:40;;;;;;;;;;;;;;;;;;4994277;28;19918;-79
2023/03/11 00:27:06;;;;;;;;;;;;;;;;;;4994165;28;20274;-79
2023/03/11 00:29:32;;;;;;;;;;;;;;;;;;4976578;28;19918;-80
2023/03/11 00:31:58;;;;;;;;;;;;;;;;;;4993834;28;20435;-80
2023/03/11 00:34:24;;;;;;;;;;;;;;;;;;4993696;28;20004;-80
2023/03/11 00:36:49;;;;;;;;;;;;;;;;;;4960326;28;19914;-81
2023/03/11 00:39:15;;;;;;;;;;;;;;;;;;4994829;28;20365;-81
2023/03/11 00:41:41;;;;;;;;;;;;;;;;;;4981259;28;19924;-82
2023/03/11 00:44:07;;;;;;;;;;;;;;;;;;4971798;28;20005;-82
2023/03/11 00:46:32;;;;;;;;;;;;;;;;;;4985125;28;19921;-82
2023/03/11 00:48:58;;;;;;;;;;;;;;;;;;4995709;28;19921;-81
2023/03/11 00:51:23;;;;;;;;;;;;;;;;;;4992337;28;19941;-80
2023/03/11 00:53:48;;;;;;;;;;;;;;;;;;4960976;28;19918;-82
2023/03/11 00:56:14;;;;;;;;;;;;;;;;;;4981060;28;19914;-82
2023/03/11 00:58:40;;;;;;;;;;;;;;;;;;4988200;28;19920;-81
2023/03/11 01:01:05;;;;;;;;;;;;;;;;;;4989246;28;19921;-83
2023/03/11 01:03:30;;;;;;;;;;;;;;;;;;4990520;28;19933;-81
2023/03/11 01:05:56;;;;;;;;;;;;;;;;;;4989279;28;19914;-82
2023/03/11 01:08:23;;;;;;;;;;;;;;;;;;4987389;28;19918;-82
2023/03/11 01:10:48;;;;;;;;;;;;;;;;;;4974690;28;19924;-83
2023/03/11 01:13:14;;;;;;;;;;;;;;;;;;4969935;28;19925;-82
2023/03/11 01:15:39;;;;;;;;;;;;;;;;;;4988777;28;19915;-83
2023/03/11 01:18:04;;;;;;;;;;;;;;;;;;4974742;28;19914;-83
2023/03/11 01:20:31;;;;;;;;;;;;;;;;;;4959152;28;19941;-83
2023/03/11 01:22:57;;;;;;;;;;;;;;;;;;4973704;28;19918;-83
2023/03/11 01:25:22;;;;;;;;;;;;;;;;;;4957394;28;19917;-83
2023/03/11 01:27:48;;;;;;;;;;;;;;;;;;4975465;28;19938;-84
2023/03/11 01:30:14;;;;;;;;;;;;;;;;;;4994078;28;19973;-83
2023/03/11 01:32:40;;;;;;;;;;;;;;;;;;4978253;28;19918;-84
2023/03/11 01:35:05;;;;;;;;;;;;;;;;;;4960615;28;19922;-84
2023/03/11 01:37:30;;;;;;;;;;;;;;;;;;4975653;28;19914;-83
2023/03/11 01:39:56;;;;;;;;;;;;;;;;;;4976646;28;19910;-83
2023/03/11 01:42:21;;;;;;;;;;;;;;;;;;4960562;28;19920;-83
2023/03/11 01:44:47;;;;;;;;;;;;;;;;;;4983902;28;20214;-84
2023/03/11 01:47:13;;;;;;;;;;;;;;;;;;4979171;28;19921;-86
2023/03/11 01:49:40;;;;;;;;;;;;;;;;;;4964375;28;19914;-82
2023/03/11 01:52:09;;;;;;;;;;;;;;;;;;4976122;28;19937;-83
2023/03/11 01:54:42;;;;;;;;;;;;;;;;;;4980902;28;19925;-84
2023/03/11 01:57:07;;;;;;;;;;;;;;;;;;4976520;28;19914;-83
2023/03/11 01:59:33;;;;;;;;;;;;;;;;;;4975403;28;19914;-83
2023/03/11 02:01:58;;;;;;;;;;;;;;;;;;4972862;28;19933;-82
2023/03/11 02:04:24;;;;;;;;;;;;;;;;;;4953889;28;19918;-82
2023/03/11 02:06:50;;;;;;;;;;;;;;;;;;4987248;28;19914;-83
2023/03/11 02:09:15;;;;;;;;;;;;;;;;;;4970802;28;19961;-83
2023/03/11 02:11:41;;;;;;;;;;;;;;;;;;4991571;28;19989;-85
2023/03/11 02:14:06;;;;;;;;;;;;;;;;;;4997816;28;20365;-84
2023/03/11 02:16:32;;;;;;;;;;;;;;;;;;4979001;28;19946;-82
2023/03/11 02:18:57;;;;;;;;;;;;;;;;;;4977831;28;19914;-84
2023/03/11 02:21:23;;;;;;;;;;;;;;;;;;4974841;28;19952;-82
2023/03/11 02:23:48;;;;;;;;;;;;;;;;;;4958408;28;19925;-83
2023/03/11 02:26:14;;;;;;;;;;;;;;;;;;4976055;28;19969;-83
2023/03/11 02:28:40;;;;;;;;;;;;;;;;;;4977379;28;19910;-84
2023/03/11 02:31:06;;;;;;;;;;;;;;;;;;4978865;28;19977;-84
2023/03/11 02:33:32;;;;;;;;;;;;;;;;;;4980115;28;19942;-84
2023/03/11 02:35:57;;;;;;;;;;;;;;;;;;4966181;28;19914;-84
2023/03/11 02:38:23;;;;;;;;;;;;;;;;;;4982441;28;19921;-83
2023/03/11 02:40:50;;;;;;;;;;;;;;;;;;4982881;28;19905;-84
2023/03/11 02:43:18;;;;;;;;;;;;;;;;;;4980973;28;19918;-83
2023/03/11 02:45:43;;;;;;;;;;;;;;;;;;4976191;28;19914;-84
2023/03/11 02:48:09;;;;;;;;;;;;;;;;;;4992467;28;19902;-84
2023/03/11 02:50:36;;;;;;;;;;;;;;;;;;4979979;28;19914;-84
2023/03/11 02:53:02;;;;;;;;;;;;;;;;;;4985231;28;19956;-84
2023/03/11 02:55:39;;;;;;;;;;;;;;;;;;4999561;28;19913;-84
2023/03/11 02:58:05;;;;;;;;;;;;;;;;;;5000454;28;19921;-85
2023/03/11 03:00:31;;;;;;;;;;;;;;;;;;4983233;28;19917;-84
2023/03/11 03:03:02;;;;;;;;;;;;;;;;;;4999627;28;19926;-83
2023/03/11 03:05:27;;;;;;;;;;;;;;;;;;4985070;28;19941;-84
2023/03/11 03:07:55;;;;;;;;;;;;;;;;;;4996996;28;19914;-82
2023/03/11 03:10:21;;;;;;;;;;;;;;;;;;5017781;28;19968;-82
2023/03/11 03:12:47;;;;;;;;;;;;;;;;;;5003053;28;19917;-82
2023/03/11 03:15:14;;;;;;;;;;;;;;;;;;4987338;28;19906;-84
2023/03/11 03:17:40;;;;;;;;;;;;;;;;;;5020339;28;19929;-83
2023/03/11 03:20:10;;;;;;;;;;;;;;;;;;4987924;28;19925;-82
2023/03/11 03:22:36;;;;;;;;;;;;;;;;;;5003997;28;19909;-84
2023/03/11 03:25:01;;;;;;;;;;;;;;;;;;5003412;28;19929;-81
2023/03/11 03:27:28;;;;;;;;;;;;;;;;;;4985851;28;19933;-82
2023/03/11 03:29:53;;;;;;;;;;;;;;;;;;5000892;28;19913;-81
2023/03/11 03:32:19;;;;;;;;;;;;;;;;;;4985703;28;19953;-84
2023/03/11 03:34:45;;;;;;;;;;;;;;;;;;4977359;28;19918;-84
2023/03/11 03:37:10;;;;;;;;;;;;;;;;;;5004938;28;20281;-83
2023/03/11 03:39:36;;;;;;;;;;;;;;;;;;4976069;28;20377;-82
2023/03/11 03:42:02;;;;;;;;;;;;;;;;;;4950947;28;19918;-82
2023/03/11 03:44:30;;;;;;;;;;;;;;;;;;4978818;28;19898;-81
2023/03/11 03:46:56;;;;;;;;;;;;;;;;;;4981512;28;19910;-81
2023/03/11 03:49:21;;;;;;;;;;;;;;;;;;5013548;28;19918;-82
2023/03/11 03:51:47;;;;;;;;;;;;;;;;;;4995033;28;19920;-82
2023/03/11 03:54:26;;;;;;;;;;;;;;;;;;5012709;28;19920;-82
2023/03/11 03:56:52;;;;;;;;;;;;;;;;;;4977582;28;19903;-81
2023/03/11 03:59:17;;;;;;;;;;;;;;;;;;4994668;28;19973;-81
2023/03/11 04:01:48;;;;;;;;;;;;;;;;;;4980708;28;19924;-81
2023/03/11 04:04:14;;;;;;;;;;;;;;;;;;4994569;28;19921;-80
2023/03/11 04:06:39;;;;;;;;;;;;;;;;;;5012724;28;19936;-80
2023/03/11 04:09:06;;;;;;;;;;;;;;;;;;4986991;28;20389;-81
2023/03/11 04:11:33;;;;;;;;;;;;;;;;;;4970467;28;19914;-81
2023/03/11 04:14:01;;;;;;;;;;;;;;;;;;4967856;28;19914;-81
2023/03/11 04:16:26;;;;;;;;;;;;;;;;;;4998768;28;20015;-81
2023/03/11 04:18:57;;;;;;;;;;;;;;;;;;4983425;28;20432;-81
2023/03/11 04:21:23;;;;;;;;;;;;;;;;;;4967004;28;19918;-81
2023/03/11 04:23:48;;;;;;;;;;;;;;;;;;4948917;28;19945;-81
2023/03/11 04:26:15;;;;;;;;;;;;;;;;;;4948902;28;20016;-81
2023/03/11 04:28:41;;;;;;;;;;;;;;;;;;4996612;28;19949;-81
2023/03/11 04:31:06;;;;;;;;;;;;;;;;;;4963049;28;19914;-81
2023/03/11 04:33:32;;;;;;;;;;;;;;;;;;4979864;28;20392;-81
2023/03/11 04:35:58;;;;;;;;;;;;;;;;;;4964775;28;19921;-81
2023/03/11 04:38:23;;;;;;;;;;;;;;;;;;4980917;28;19961;-81
2023/03/11 04:40:49;;;;;;;;;;;;;;;;;;4978044;28;20325;-81
2023/03/11 04:43:14;;;;;;;;;;;;;;;;;;4978426;28;19918;-81
2023/03/11 04:45:39;;;;;;;;;;;;;;;;;;4977999;28;19914;-81
2023/03/11 04:48:05;;;;;;;;;;;;;;;;;;4980353;28;19941;-81
2023/03/11 04:50:31;;;;;;;;;;;;;;;;;;4980119;28;20392;-81
2023/03/11 04:52:57;;;;;;;;;;;;;;;;;;4983103;28;20274;-81
2023/03/11 04:55:22;;;;;;;;;;;;;;;;;;4952026;28;20297;-81
2023/03/11 04:57:48;;;;;;;;;;;;;;;;;;4965331;28;19914;-81
2023/03/11 05:00:14;;;;;;;;;;;;;;;;;;4966760;28;19914;-81
2023/03/11 05:02:42;;;;;;;;;;;;;;;;;;5000103;28;19976;-81
2023/03/11 05:05:07;;;;;;;;;;;;;;;;;;4982153;28;19914;-81
2023/03/11 05:07:33;;;;;;;;;;;;;;;;;;4965673;28;19920;-81
2023/03/11 05:09:58;;;;;;;;;;;;;;;;;;4964482;28;19964;-81
2023/03/11 05:12:24;;;;;;;;;;;;;;;;;;4965148;28;19914;-81
2023/03/11 05:14:51;;;;;;;;;;;;;;;;;;4950268;28;19924;-81
2023/03/11 05:17:18;;;;;;;;;;;;;;;;;;4964337;28;19914;-81
2023/03/11 05:19:44;;;;;;;;;;;;;;;;;;5001221;28;19937;-82
2023/03/11 05:22:16;;;;;;;;;;;;;;;;;;4972495;28;19928;-82
2023/03/11 05:24:42;;;;;;;;;;;;;;;;;;4987320;28;19945;-81
2023/03/11 05:27:07;;;;;;;;;;;;;;;;;;4971249;28;19914;-82
2023/03/11 05:29:37;;;;;;;;;;;;;;;;;;4988926;28;19921;-81
2023/03/11 05:32:03;;;;;;;;;;;;;;;;;;4992526;28;19918;-82
2023/03/11 05:34:29;;;;;;;;;;;;;;;;;;4975862;28;19916;-82
2023/03/11 05:36:54;;;;;;;;;;;;;;;;;;4991253;28;19918;-82
2023/03/11 05:39:21;;;;;;;;;;;;;;;;;;4979034;28;19926;-81
2023/03/11 05:41:46;;;;;;;;;;;;;;;;;;4975003;28;19914;-82
2023/03/11 05:44:12;;;;;;;;;;;;;;;;;;4993458;28;20313;-82
2023/03/11 05:46:38;;;;;;;;;;;;;;;;;;4979115;28;19914;-82
2023/03/11 05:49:04;;;;;;;;;;;;;;;;;;4961902;28;20349;-82
2023/03/11 05:51:30;;;;;;;;;;;;;;;;;;5011767;28;19929;-82
2023/03/11 05:53:56;;;;;;;;;;;;;;;;;;4998211;28;19904;-84
2023/03/11 05:56:29;;;;;;;;;;;;;;;;;;4982414;28;19913;-82
2023/03/11 05:58:55;;;;;;;;;;;;;;;;;;4965231;28;19914;-83
2023/03/11 06:01:21;;;;;;;;;;;;;;;;;;4982400;28;19920;-83
2023/03/11 06:03:46;;;;;;;;;;;;;;;;;;4967641;28;19979;-83
2023/03/11 06:06:12;;;;;;;;;;;;;;;;;;4999768;28;19925;-83
2023/03/11 06:08:38;;;;;;;;;;;;;;;;;;4982924;28;19918;-83
2023/03/11 06:11:03;;;;;;;;;;;;;;;;;;4997531;28;19913;-82
2023/03/11 06:13:29;;;;;;;;;;;;;;;;;;4982014;28;19973;-83
2023/03/11 06:15:54;;;;;;;;;;;;;;;;;;4999027;28;19918;-83
2023/03/11 06:18:21;;;;;;;;;;;;;;;;;;4967317;28;20074;-83
2023/03/11 06:20:47;;;;;;;;;;;;;;;;;;4997737;28;19920;-82
2023/03/11 06:23:12;;;;;;;;;;;;;;;;;;4980967;28;19917;-82
2023/03/11 06:25:38;;;;;;;;;;;;;;;;;;4999137;28;19913;-83
2023/03/11 06:28:03;;;;;;;;;;;;;;;;;;4998990;28;19921;-83
2023/03/11 06:30:29;;;;;;;;;;;;;;;;;;4981725;28;20365;-83
2023/03/11 06:33:08;;;;;;;;;;;;;;;;;;4977039;28;19982;-81
2023/03/11 06:35:34;;;;;;;;;;;;;;;;;;4990748;28;19913;-82
2023/03/11 06:37:59;;;;;;;;;;;;;;;;;;5008559;28;19914;-81
2023/03/11 06:40:25;;;;;;;;;;;;;;;;;;5006687;28;19914;-82
2023/03/11 06:42:51;;;;;;;;;;;;;;;;;;4998710;28;20337;-82
2023/03/11 06:45:18;;;;;;;;;;;;;;;;;;4984958;28;19941;-82
2023/03/11 06:47:44;;;;;;;;;;;;;;;;;;4999260;28;19941;-81
2023/03/11 06:50:09;;;;;;;;;;;;;;;;;;5002126;28;19902;-80
2023/03/11 06:52:35;;;;;;;;;;;;;;;;;;4986175;28;20385;-80
2023/03/11 06:55:00;;;;;;;;;;;;;;;;;;5000804;28;19925;-80
2023/03/11 06:57:28;;;;;;;;;;;;;;;;;;5001852;28;19925;-81
2023/03/11 06:59:55;;;;;;;;;;;;;;;;;;4996866;28;19905;-80
2023/03/11 07:02:20;;;;;;;;;;;;;;;;;;4989768;28;19976;-80
2023/03/11 07:04:46;;;;;;;;;;;;;;;;;;4986786;28;20002;-79
2023/03/11 07:07:11;;;;;;;;;;;;;;;;;;5002618;28;20444;-81
2023/03/11 07:09:36;;;;;;;;;;;;;;;;;;4985923;28;20012;-80
2023/03/11 07:12:03;;;;;;;;;;;;;;;;;;4969580;28;20008;-82
2023/03/11 07:14:32;;;;;;;;;;;;;;;;;;4986343;28;20377;-81
2023/03/11 07:16:58;;;;;;;;;;;;;;;;;;5002463;28;19964;-81
2023/03/11 07:19:29;;;;;;;;;;;;;;;;;;4968879;28;20004;-81
2023/03/11 07:21:55;;;;;;;;;;;;;;;;;;5001954;28;20027;-80
2023/03/11 07:24:20;;;;;;;;;;;;;;;;;;5001092;28;19922;-81
2023/03/11 07:26:46;;;;;;;;;;;;;;;;;;4984272;28;19920;-82
2023/03/11 07:29:11;;;;;;;;;;;;;;;;;;5000620;28;20285;-80
2023/03/11 07:31:36;;;;;;;;;;;;;;;;;;5000711;28;19914;-80
2023/03/11 07:34:02;;;;;;;;;;;;;;;;;;4981148;28;19914;-81
2023/03/11 07:36:27;;;;;;;;;;;;;;;;;;4988136;28;19913;-82
2023/03/11 07:38:53;;;;;;;;;;;;;;;;;;5003721;28;19914;-82
2023/03/11 07:41:18;;;;;;;;;;;;;;;;;;4973316;28;20364;-81
2023/03/11 07:43:44;;;;;;;;;;;;;;;;;;4979324;28;20344;-82
2023/03/11 07:46:09;;;;;;;;;;;;;;;;;;4962912;28;19960;-81
2023/03/11 07:48:35;;;;;;;;;;;;;;;;;;4980582;28;19914;-81
2023/03/11 07:51:00;;;;;;;;;;;;;;;;;;4995876;28;20392;-80
2023/03/11 07:53:25;;;;;;;;;;;;;;;;;;4993802;28;19914;-80
2023/03/11 07:55:51;;;;;;;;;;;;;;;;;;4993114;28;19913;-79
2023/03/11 07:58:16;;;;;;;;;;;;;;;;;;4978097;28;20007;-80
2023/03/11 08:00:42;;;;;;;;;;;;;;;;;;4979276;28;19914;-80
2023/03/11 08:03:07;;;;;;;;;;;;;;;;;;4996096;28;19918;-79
2023/03/11 08:05:33;;;;;;;;;;;;;;;;;;4977438;28;20403;-79
2023/03/11 08:07:58;;;;;;;;;;;;;;;;;;4993589;28;19914;-79
2023/03/11 08:10:23;;;;;;;;;;;;;;;;;;4994011;28;20377;-79
2023/03/11 08:12:49;;;;;;;;;;;;;;;;;;4976790;28;20004;-80
2023/03/11 08:15:14;;;;;;;;;;;;;;;;;;4976320;28;20374;-79
2023/03/11 08:17:40;;;;;;;;;;;;;;;;;;4960619;28;19937;-80
2023/03/11 08:20:07;;;;;;;;;;;;;;;;;;4994427;28;19913;-79
2023/03/11 08:22:33;;;;;;;;;;;;;;;;;;4994327;28;19918;-80
2023/03/11 08:24:58;;;;;;;;;;;;;;;;;;4993847;28;20443;-80
2023/03/11 08:27:23;;;;;;;;;;;;;;;;;;4977240;28;19953;-80
2023/03/11 08:29:49;;;;;;;;;;;;;;;;;;4995533;28;19914;-80
2023/03/11 08:32:14;;;;;;;;;;;;;;;;;;4994504;28;19914;-80
2023/03/11 08:34:40;;;;;;;;;;;;;;;;;;4992733;28;19914;-80
2023/03/11 08:37:05;;;;;;;;;;;;;;;;;;4993875;28;19914;-80
2023/03/11 08:39:31;;;;;;;;;;;;;;;;;;4993682;28;20389;-79
2023/03/11 08:41:58;;;;;;;;;;;;;;;;;;4976799;28;20385;-80
2023/03/11 08:44:24;;;;;;;;;;;;;;;;;;4994669;28;19976;-80
2023/03/11 08:46:49;;;;;;;;;;;;;;;;;;4993759;28;19914;-80
2023/03/11 08:49:15;;;;;;;;;;;;;;;;;;4960399;28;19937;-80
2023/03/11 08:51:41;;;;;;;;;;;;;;;;;;4993656;28;19914;-79
2023/03/11 08:54:06;;;;;;;;;;;;;;;;;;4976221;28;19914;-80
2023/03/11 08:56:32;;;;;;;;;;;;;;;;;;4996990;28;20005;-79
2023/03/11 08:58:57;;;;;;;;;;;;;;;;;;4998124;28;20619;-79
2023/03/11 09:01:23;;;;;;;;;;;;;;;;;;4981704;28;20016;-79
2023/03/11 09:03:48;;;;;;;;;;;;;;;;;;4980443;28;19956;-79
2023/03/11 09:06:14;;;;;;;;;;;;;;;;;;4982376;28;19913;-80
2023/03/11 09:08:40;;;;;;;;;;;;;;;;;;4983434;28;19970;-80
2023/03/11 09:11:05;;;;;;;;;;;;;;;;;;5000724;28;19913;-79
2023/03/11 09:13:31;;;;;;;;;;;;;;;;;;5002488;28;19936;-79
2023/03/11 09:15:57;;;;;;;;;;;;;;;;;;4985968;28;20479;-80
2023/03/11 09:18:22;;;;;;;;;;;;;;;;;;4987407;28;20290;-80
2023/03/11 09:20:51;;;;;;;;;;;;;;;;;;5003945;28;20004;-80
2023/03/11 09:23:16;;;;;;;;;;;;;;;;;;4990319;28;19957;-80
2023/03/11 09:25:42;;;;;;;;;;;;;;;;;;4969457;28;19924;-80
2023/03/11 09:28:07;;;;;;;;;;;;;;;;;;4985369;28;20381;-79
2023/03/11 09:30:32;;;;;;;;;;;;;;;;;;4984683;28;19920;-80
2023/03/11 09:32:58;;;;;;;;;;;;;;;;;;5001003;28;20293;-80
2023/03/11 09:35:23;;;;;;;;;;;;;;;;;;4983119;28;19913;-80
2023/03/11 09:37:49;;;;;;;;;;;;;;;;;;4999522;28;19920;-80
2023/03/11 09:40:14;;;;;;;;;;;;;;;;;;4966763;28;19917;-78
2023/03/11 09:42:39;;;;;;;;;;;;;;;;;;4981830;28;19945;-78
2023/03/11 09:45:05;;;;;;;;;;;;;;;;;;4965041;28;19941;-78
2023/03/11 09:47:30;;;;;;;;;;;;;;;;;;4963988;28;19914;-78
2023/03/11 09:49:56;;;;;;;;;;;;;;;;;;4964908;28;19914;-78
2023/03/11 09:52:21;;;;;;;;;;;;;;;;;;4964484;28;19918;-78
2023/03/11 09:54:47;;;;;;;;;;;;;;;;;;4964900;28;19960;-77
2023/03/11 09:57:12;;;;;;;;;;;;;;;;;;4981000;28;19913;-78
2023/03/11 09:59:37;;;;;;;;;;;;;;;;;;4964784;28;19921;-77
2023/03/11 10:02:03;;;;;;;;;;;;;;;;;;4982359;28;19909;-77
2023/03/11 10:04:28;;;;;;;;;;;;;;;;;;4979906;28;19918;-77
2023/03/11 10:06:54;;;;;;;;;;;;;;;;;;4978925;28;19918;-78
2023/03/11 10:09:19;;;;;;;;;;;;;;;;;;4963924;28;19918;-77
2023/03/11 10:11:45;;;;;;;;;;;;;;;;;;4997581;28;19918;-77
2023/03/11 10:14:11;;;;;;;;;;;;;;;;;;5000240;28;19964;-78
2023/03/11 10:16:37;;;;;;;;;;;;;;;;;;4983396;28;19913;-78
2023/03/11 10:19:02;;;;;;;;;;;;;;;;;;5007065;28;19964;-79
2023/03/11 10:21:28;;;;;;;;;;;;;;;;;;5003034;28;19917;-79
2023/03/11 10:23:53;;;;;;;;;;;;;;;;;;5017120;28;19976;-78
2023/03/11 10:26:19;;;;;;;;;;;;;;;;;;5019611;28;19988;-79
2023/03/11 10:28:44;;;;;;;;;;;;;;;;;;5020010;28;19917;-79
2023/03/11 10:31:09;;;;;;;;;;;;;;;;;;5017667;28;19909;-80
2023/03/11 10:33:35;;;;;;;;;;;;;;;;;;5002728;28;19921;-79
2023/03/11 10:36:00;;;;;;;;;;;;;;;;;;5001020;28;19905;-79
2023/03/11 10:38:25;;;;;;;;;;;;;;;;;;5002109;28;19969;-78
2023/03/11 10:40:51;;;;;;;;;;;;;;;;;;5014749;28;19914;-82
2023/03/11 10:43:17;;;;;;;;;;;;;;;;;;4998598;28;19965;-82
2023/03/11 10:45:43;;;;;;;;;;;;;;;;;;5011210;28;19933;-80
2023/03/11 10:48:09;;;;;;;;;;;;;;;;;;4990495;28;19985;-80
2023/03/11 10:50:34;;;;;;;;;;;;;;;;;;5007156;28;19914;-80
2023/03/11 10:53:00;;;;;;;;;;;;;;;;;;4984509;28;19913;-80
2023/03/11 10:55:25;;;;;;;;;;;;;;;;;;4983270;28;19924;-80
2023/03/11 10:57:51;;;;;;;;;;;;;;;;;;5000396;28;19994;-80
2023/03/11 11:00:16;;;;;;;;;;;;;;;;;;4975986;28;20001;-80
2023/03/11 11:02:42;;;;;;;;;;;;;;;;;;4996541;28;20300;-80
2023/03/11 11:05:07;;;;;;;;;;;;;;;;;;4996270;28;19914;-80
2023/03/11 11:07:33;;;;;;;;;;;;;;;;;;4962018;28;20321;-80
2023/03/11 11:09:58;;;;;;;;;;;;;;;;;;4978529;28;19917;-79
2023/03/11 11:12:23;;;;;;;;;;;;;;;;;;4978062;28;20000;-80
2023/03/11 11:14:50;;;;;;;;;;;;;;;;;;4990942;28;19937;-80
2023/03/11 11:17:16;;;;;;;;;;;;;;;;;;4989287;28;19914;-80
2023/03/11 11:19:41;;;;;;;;;;;;;;;;;;4991703;28;19917;-80
2023/03/11 11:22:06;;;;;;;;;;;;;;;;;;4990400;28;20282;-80
2023/03/11 11:24:32;;;;;;;;;;;;;;;;;;4960297;28;19928;-80
2023/03/11 11:26:57;;;;;;;;;;;;;;;;;;4995041;28;19920;-80
2023/03/11 11:29:23;;;;;;;;;;;;;;;;;;4977621;28;19921;-79
2023/03/11 11:31:48;;;;;;;;;;;;;;;;;;4994278;28;19925;-79
2023/03/11 11:34:13;;;;;;;;;;;;;;;;;;4966757;28;19913;-79
2023/03/11 11:36:39;;;;;;;;;;;;;;;;;;4993004;28;19914;-79
2023/03/11 11:39:05;;;;;;;;;;;;;;;;;;4976341;28;19920;-78
2023/03/11 11:41:30;;;;;;;;;;;;;;;;;;4976402;28;20348;-79
2023/03/11 11:43:56;;;;;;;;;;;;;;;;;;4977481;28;19922;-79
2023/03/11 11:46:21;;;;;;;;;;;;;;;;;;4993052;28;20001;-78
2023/03/11 11:48:47;;;;;;;;;;;;;;;;;;4975439;28;20017;-77
2023/03/11 11:51:14;;;;;;;;;;;;;;;;;;4975928;28;20451;-76
2023/03/11 11:53:39;;;;;;;;;;;;;;;;;;4992331;28;19924;-76
2023/03/11 11:56:05;;;;;;;;;;;;;;;;;;4985048;28;19913;-76
2023/03/11 11:58:30;;;;;;;;;;;;;;;;;;4989680;28;20378;-76
2023/03/11 12:00:55;;;;;;;;;;;;;;;;;;4994812;28;20266;-77
2023/03/11 12:03:22;;;;;;;;;;;;;;;;;;4968457;28;20305;-77
2023/03/11 12:05:47;;;;;;;;;;;;;;;;;;4989117;28;19983;-77
2023/03/11 12:08:12;;;;;;;;;;;;;;;;;;4992905;28;20432;-76
2023/03/11 12:10:38;;;;;;;;;;;;;;;;;;4975080;28;19922;-77
2023/03/11 12:13:04;;;;;;;;;;;;;;;;;;4961975;28;19977;-77
2023/03/11 12:15:30;;;;;;;;;;;;;;;;;;4977326;28;19914;-77
2023/03/11 12:17:55;;;;;;;;;;;;;;;;;;4975206;28;19921;-77
2023/03/11 12:20:21;;;;;;;;;;;;;;;;;;5000755;28;20345;-77
2023/03/11 12:22:46;;;;;;;;;;;;;;;;;;5008197;28;20544;-76
2023/03/11 12:25:12;;;;;;;;;;;;;;;;;;4982182;28;20032;-76
2023/03/11 12:27:37;;;;;;;;;;;;;;;;;;4985557;28;20362;-77
2023/03/11 12:30:02;;;;;;;;;;;;;;;;;;5005905;28;19914;-77
2023/03/11 12:32:28;;;;;;;;;;;;;;;;;;4962991;28;20405;-76
2023/03/11 12:34:53;;;;;;;;;;;;;;;;;;4958937;28;19918;-77
2023/03/11 12:37:19;;;;;;;;;;;;;;;;;;4990984;28;19914;-76
2023/03/11 12:39:44;;;;;;;;;;;;;;;;;;4972147;28;19937;-77
2023/03/11 12:42:09;;;;;;;;;;;;;;;;;;4975616;28;19949;-77
2023/03/11 12:44:35;;;;;;;;;;;;;;;;;;4975157;28;19963;-76
2023/03/11 12:47:00;;;;;;;;;;;;;;;;;;4992466;28;19921;-77
2023/03/11 12:49:26;;;;;;;;;;;;;;;;;;4975195;28;19921;-77
2023/03/11 12:51:51;;;;;;;;;;;;;;;;;;4975532;28;19914;-77
2023/03/11 12:54:16;;;;;;;;;;;;;;;;;;4992737;28;19918;-77
2023/03/11 12:56:42;;;;;;;;;;;;;;;;;;4974812;28;20374;-76
2023/03/11 12:59:07;;;;;;;;;;;;;;;;;;4992740;28;19914;-76
2023/03/11 13:01:32;;;;;;;;;;;;;;;;;;4992167;28;20370;-76
2023/03/11 13:03:59;;;;;;;;;;;;;;;;;;4974853;28;19918;-76
2023/03/11 13:06:25;;;;;;;;;;;;;;;;;;4990823;28;19976;-76
2023/03/11 13:08:50;;;;;;;;;;;;;;;;;;4992695;28;20397;-76
2023/03/11 13:11:16;;;;;;;;;;;;;;;;;;4982215;28;19941;-76
2023/03/11 13:13:41;;;;;;;;;;;;;;;;;;4996609;28;19918;-76
2023/03/11 13:16:06;;;;;;;;;;;;;;;;;;5006366;28;19913;-76
2023/03/11 13:18:32;;;;;;;;;;;;;;;;;;4978819;28;20464;-77
2023/03/11 13:20:58;;;;;;;;;;;;;;;;;;4975105;28;19921;-77
2023/03/11 13:23:23;;;;;;;;;;;;;;;;;;4983340;28;19918;-76
2023/03/11 13:25:48;;;;;;;;;;;;;;;;;;5001688;28;20428;-76
2023/03/11 13:28:14;;;;;;;;;;;;;;;;;;5007569;28;20016;-76
2023/03/11 13:30:39;;;;;;;;;;;;;;;;;;4996913;28;20443;-76
2023/03/11 13:33:04;;;;;;;;;;;;;;;;;;5004310;28;20391;-77
2023/03/11 13:35:30;;;;;;;;;;;;;;;;;;4994378;28;19914;-76
2023/03/11 13:37:55;;;;;;;;;;;;;;;;;;5013169;28;19901;-89
2023/03/11 13:40:21;;;;;;;;;;;;;;;;;;5109390;23;19926;-76
2023/03/11 13:42:47;;;;;;;;;;;;;;;;;;4973359;28;19944;-76
2023/03/11 13:45:12;;;;;;;;;;;;;;;;;;4976566;28;20384;-76
2023/03/11 13:47:38;;;;;;;;;;;;;;;;;;4978297;28;19929;-76
2023/03/11 13:50:03;;;;;;;;;;;;;;;;;;5007882;28;20332;-76
2023/03/11 13:52:28;;;;;;;;;;;;;;;;;;5010420;28;20000;-76
2023/03/11 13:54:54;;;;;;;;;;;;;;;;;;5015911;28;19917;-76
2023/03/11 13:57:19;;;;;;;;;;;;;;;;;;5022654;28;19937;-76
2023/03/11 13:59:44;;;;;;;;;;;;;;;;;;4996813;28;19914;-75
2023/03/11 14:02:10;;;;;;;;;;;;;;;;;;5009028;28;19914;-75
2023/03/11 14:04:39;;;;;;;;;;;;;;;;;;4994763;28;19917;-76
2023/03/11 14:07:04;;;;;;;;;;;;;;;;;;5027659;28;19913;-76
2023/03/11 14:09:30;;;;;;;;;;;;;;;;;;5001032;28;20411;-76
2023/03/11 14:11:56;;;;;;;;;;;;;;;;;;5004212;28;20034;-76
2023/03/11 14:14:21;;;;;;;;;;;;;;;;;;4996112;28;19918;-76
2023/03/11 14:17:02;;;;;;;;;;;;;;;;;;5429819;22;19925;-84
2023/03/11 14:19:28;;;;;;;;;;;;;;;;;;5022051;28;19952;-84
2023/03/11 14:21:57;;;;;;;;;;;;;;;;;;5043327;28;19917;-84
2023/03/11 14:24:23;;;;;;;;;;;;;;;;;;5042059;28;19928;-84
2023/03/11 14:26:54;;;;;;;;;;;;;;;;;;5042488;28;19980;-84
2023/03/11 14:29:20;;;;;;;;;;;;;;;;;;5041849;28;19913;-84
2023/03/11 14:31:46;;;;;;;;;;;;;;;;;;5040829;28;19943;-83
2023/03/11 14:34:15;;;;;;;;;;;;;;;;;;5041158;28;20012;-84
2023/03/11 14:36:43;;;;;;;;;;;;;;;;;;5011458;28;19905;-84
2023/03/11 14:39:08;;;;;;;;;;;;;;;;;;5027027;28;19920;-84
2023/03/11 14:44:16;;;;;;;;;;;;;;;;;;4967595;26;19952;-82
2023/03/11 14:52:00;;;;;;;;;;;;;;;;;;5252200;23;19916;-83
2023/03/11 14:57:19;;;;;;;;;;;;;;;;;;5729754;23;19909;-82
2023/03/11 14:59:46;;;;;;;;;;;;;;;;;;5038331;28;19909;-83
2023/03/11 15:02:17;;;;;;;;;;;;;;;;;;5368628;23;19918;-83
2023/03/11 15:07:47;;;;;;;;;;;;;;;;;;5793621;23;19942;-83
2023/03/11 15:10:16;;;;;;;;;;;;;;;;;;5018375;28;19917;-76
2023/03/11 15:12:41;;;;;;;;;;;;;;;;;;5013160;28;19920;-76
2023/03/11 15:15:07;;;;;;;;;;;;;;;;;;5008203;28;19922;-76
2023/03/11 15:17:33;;;;;;;;;;;;;;;;;;5012448;28;20007;-76
2023/03/11 15:19:58;;;;;;;;;;;;;;;;;;5013466;28;19924;-76
2023/03/11 15:22:24;;;;;;;;;;;;;;;;;;5013839;28;19910;-76
2023/03/11 15:24:49;;;;;;;;;;;;;;;;;;5010826;28;20365;-76
2023/03/11 15:27:15;;;;;;;;;;;;;;;;;;5010523;28;19914;-76
2023/03/11 15:29:40;;;;;;;;;;;;;;;;;;5013149;28;20438;-76
2023/03/11 15:32:05;;;;;;;;;;;;;;;;;;5013360;28;19953;-78
2023/03/11 15:34:31;;;;;;;;;;;;;;;;;;5013645;28;20372;-77
2023/03/11 15:36:56;;;;;;;;;;;;;;;;;;5012270;28;19914;-76
2023/03/11 15:39:22;;;;;;;;;;;;;;;;;;5012113;28;19909;-76
2023/03/11 15:41:48;;;;;;;;;;;;;;;;;;5013283;28;19917;-76
2023/03/11 15:44:13;;;;;;;;;;;;;;;;;;5010566;28;20407;-76
2023/03/11 15:46:38;;;;;;;;;;;;;;;;;;5013332;28;19921;-76
2023/03/11 15:49:04;;;;;;;;;;;;;;;;;;4995700;28;19921;-76
2023/03/11 15:51:29;;;;;;;;;;;;;;;;;;5011870;28;19914;-76
2023/03/11 15:53:55;;;;;;;;;;;;;;;;;;5013188;28;19913;-76
2023/03/11 15:56:20;;;;;;;;;;;;;;;;;;5012166;28;19917;-76
2023/03/11 15:58:46;;;;;;;;;;;;;;;;;;5012971;28;19909;-76
2023/03/11 16:01:11;;;;;;;;;;;;;;;;;;5011778;28;20403;-76
2023/03/11 16:03:37;;;;;;;;;;;;;;;;;;5011707;28;19967;-76
2023/03/11 16:06:03;;;;;;;;;;;;;;;;;;5013019;28;19957;-76
2023/03/11 16:08:28;;;;;;;;;;;;;;;;;;4995783;28;20364;-76
2023/03/11 16:10:54;;;;;;;;;;;;;;;;;;5011899;28;19917;-76
2023/03/11 16:13:19;;;;;;;;;;;;;;;;;;5011450;28;19914;-76
2023/03/11 16:15:45;;;;;;;;;;;;;;;;;;5009391;28;19921;-76
2023/03/11 16:18:11;;;;;;;;;;;;;;;;;;5012244;28;19913;-76
2023/03/11 16:20:36;;;;;;;;;;;;;;;;;;5012816;28;19913;-76
2023/03/11 16:23:02;;;;;;;;;;;;;;;;;;5010103;28;19918;-76
2023/03/11 16:25:29;;;;;;;;;;;;;;;;;;4985870;28;20683;-76
2023/03/11 16:27:54;;;;;;;;;;;;;;;;;;5004028;28;19918;-76
2023/03/11 16:30:20;;;;;;;;;;;;;;;;;;5012539;28;19964;-76
2023/03/11 16:32:45;;;;;;;;;;;;;;;;;;5007369;28;20319;-76
2023/03/11 16:35:11;;;;;;;;;;;;;;;;;;5006617;28;19910;-76
2023/03/11 16:37:36;;;;;;;;;;;;;;;;;;5007041;28;20373;-76
2023/03/11 16:40:03;;;;;;;;;;;;;;;;;;5017678;28;19910;-76
2023/03/11 16:42:28;;;;;;;;;;;;;;;;;;5012350;28;19914;-76
2023/03/11 16:44:53;;;;;;;;;;;;;;;;;;5010126;28;19963;-76
2023/03/11 16:47:19;;;;;;;;;;;;;;;;;;5010912;28;20431;-76
2023/03/11 16:49:44;;;;;;;;;;;;;;;;;;5021476;28;19910;-82
2023/03/11 16:52:10;;;;;;;;;;;;;;;;;;5288290;23;19984;-80